createdAt,value
2022-11-30T00:01:19.242Z,6.45
2022-11-30T00:04:20.836Z,6.43
2022-11-30T00:07:22.393Z,6.41
2022-11-30T00:10:25.354Z,6.40
2022-11-30T00:13:28.433Z,6.38
2022-11-30T00:16:30.006Z,6.39
2022-11-30T00:19:31.529Z,6.38
2022-11-30T00:22:33.209Z,6.36
2022-11-30T00:25:36.688Z,6.35
2022-11-30T00:28:38.995Z,6.36
2022-11-30T00:31:40.521Z,6.37
2022-11-30T00:34:42.077Z,6.35
2022-11-30T00:37:43.755Z,6.32
2022-11-30T00:40:46.725Z,6.35
2022-11-30T00:43:51.497Z,6.35
2022-11-30T00:46:52.982Z,6.30
2022-11-30T00:49:54.598Z,6.31
2022-11-30T00:52:57.589Z,6.29
2022-11-30T00:56:00.370Z,6.29
2022-11-30T00:59:02.087Z,6.35
2022-11-30T01:02:04.098Z,6.30
2022-11-30T01:05:05.911Z,6.27
2022-11-30T01:08:08.230Z,6.29
2022-11-30T01:11:14.920Z,6.28
2022-11-30T01:14:16.528Z,6.27
2022-11-30T01:17:18.197Z,6.27
2022-11-30T01:20:19.838Z,6.29
2022-11-30T01:23:21.371Z,6.30
2022-11-30T01:26:24.609Z,6.29
2022-11-30T01:29:26.143Z,6.28
2022-11-30T01:32:28.319Z,6.26
2022-11-30T01:35:29.897Z,6.19
2022-11-30T01:38:32.659Z,6.19
2022-11-30T01:41:36.086Z,6.23
2022-11-30T01:44:49.877Z,6.17
2022-11-30T01:47:52.651Z,6.12
2022-11-30T01:50:54.543Z,6.10
2022-11-30T01:53:56.275Z,6.06
2022-11-30T01:57:00.255Z,6.01
2022-11-30T02:00:02.508Z,6.01
2022-11-30T02:03:07.625Z,6.02
2022-11-30T02:06:09.853Z,6.02
2022-11-30T02:09:12.576Z,6.01
2022-11-30T02:12:20.847Z,6.00
2022-11-30T02:15:25.810Z,6.04
2022-11-30T02:18:30.801Z,6.06
2022-11-30T02:21:36.849Z,6.08
2022-11-30T02:24:42.237Z,6.04
2022-11-30T02:27:52.760Z,5.95
2022-11-30T02:30:59.327Z,5.93
2022-11-30T02:34:02.698Z,5.94
2022-11-30T02:37:05.727Z,5.96
2022-11-30T02:40:08.403Z,5.93
2022-11-30T02:43:09.903Z,5.92
2022-11-30T02:46:16.403Z,5.93
2022-11-30T02:49:24.015Z,5.94
2022-11-30T02:52:27.264Z,5.97
2022-11-30T02:55:29.198Z,5.89
2022-11-30T02:58:31.140Z,5.87
2022-11-30T03:01:33.993Z,5.93
2022-11-30T03:04:35.560Z,5.92
2022-11-30T03:07:37.322Z,5.89
2022-11-30T03:10:38.967Z,5.88
2022-11-30T03:13:40.562Z,5.88
2022-11-30T03:16:44.259Z,5.85
2022-11-30T03:19:45.767Z,5.86
2022-11-30T03:22:47.406Z,5.86
2022-11-30T03:25:48.888Z,5.84
2022-11-30T03:28:51.014Z,5.87
2022-11-30T03:31:53.926Z,5.87
2022-11-30T03:34:55.501Z,5.88
2022-11-30T03:37:57.787Z,5.88
2022-11-30T03:40:59.835Z,5.89
2022-11-30T03:44:01.488Z,5.88
2022-11-30T03:47:04.523Z,5.87
2022-11-30T03:50:06.730Z,5.83
2022-11-30T03:53:08.193Z,5.81
2022-11-30T03:56:10.443Z,5.80
2022-11-30T03:59:11.862Z,5.89
2022-11-30T04:02:14.668Z,5.82
2022-11-30T04:05:18.035Z,5.82
2022-11-30T04:08:19.462Z,5.81
2022-11-30T04:11:21.046Z,5.74
2022-11-30T04:14:22.507Z,5.69
2022-11-30T04:17:25.471Z,5.69
2022-11-30T04:20:27.293Z,5.71
2022-11-30T04:23:30.181Z,5.72
2022-11-30T04:26:31.626Z,5.70
2022-11-30T04:29:33.049Z,5.69
2022-11-30T04:32:36.067Z,5.67
2022-11-30T04:35:39.790Z,5.66
2022-11-30T04:38:41.382Z,5.64
2022-11-30T04:41:44.144Z,5.59
2022-11-30T04:44:45.884Z,5.60
2022-11-30T04:47:49.052Z,5.58
2022-11-30T04:50:50.751Z,5.59
2022-11-30T04:53:52.494Z,5.60
2022-11-30T04:56:53.979Z,5.64
2022-11-30T04:59:55.515Z,5.66
2022-11-30T05:02:58.502Z,5.66
2022-11-30T05:06:00.091Z,5.68
2022-11-30T05:09:01.537Z,5.68
2022-11-30T05:12:03.123Z,5.67
2022-11-30T05:15:05.172Z,5.73
2022-11-30T05:18:08.009Z,5.78
2022-11-30T05:21:09.676Z,5.83
2022-11-30T05:24:12.198Z,5.86
2022-11-30T05:27:19.378Z,5.86
2022-11-30T05:30:24.176Z,5.83
2022-11-30T05:33:27.321Z,5.85
2022-11-30T05:36:28.815Z,5.84
2022-11-30T05:39:30.273Z,5.84
2022-11-30T05:42:31.982Z,5.77
2022-11-30T05:45:33.436Z,5.71
2022-11-30T05:48:36.556Z,5.70
2022-11-30T05:51:39.310Z,5.70
2022-11-30T05:54:41.175Z,5.67
2022-11-30T05:57:42.752Z,5.72
2022-11-30T06:00:44.193Z,5.77
2022-11-30T06:03:47.489Z,5.78
2022-11-30T06:06:49.605Z,5.77
2022-11-30T06:09:51.245Z,5.73
2022-11-30T06:12:52.790Z,5.72
2022-11-30T06:15:54.334Z,5.69
2022-11-30T06:18:57.211Z,5.62
2022-11-30T06:21:58.695Z,5.59
2022-11-30T06:25:00.181Z,5.53
2022-11-30T06:28:01.830Z,5.50
2022-11-30T06:31:04.718Z,5.54
2022-11-30T06:34:07.608Z,5.56
2022-11-30T06:37:09.110Z,5.51
2022-11-30T06:40:11.641Z,5.45
2022-11-30T06:43:13.923Z,5.51
2022-11-30T06:46:15.615Z,5.48
2022-11-30T06:49:18.691Z,5.51
2022-11-30T06:52:20.185Z,5.49
2022-11-30T06:55:21.675Z,5.49
2022-11-30T06:58:23.406Z,5.56
2022-11-30T07:01:24.848Z,5.60
2022-11-30T07:04:27.841Z,5.63
2022-11-30T07:07:29.707Z,5.68
2022-11-30T07:10:31.239Z,5.66
2022-11-30T07:13:32.675Z,5.64
2022-11-30T07:16:34.255Z,5.59
2022-11-30T07:19:37.350Z,5.59
2022-11-30T07:22:38.930Z,5.63
2022-11-30T07:25:58.976Z,5.57
2022-11-30T07:29:00.647Z,5.55
2022-11-30T07:32:02.284Z,5.56
2022-11-30T07:35:05.474Z,5.47
2022-11-30T07:38:09.921Z,5.49
2022-11-30T07:41:11.862Z,5.46
2022-11-30T07:44:16.196Z,5.49
2022-11-30T07:47:17.742Z,5.47
2022-11-30T07:50:20.654Z,5.50
2022-11-30T07:53:22.339Z,5.51
2022-11-30T07:56:23.921Z,5.50
2022-11-30T07:59:25.503Z,5.55
2022-11-30T08:02:27.103Z,5.59
2022-11-30T08:05:30.107Z,5.64
2022-11-30T08:08:32.816Z,5.65
2022-11-30T08:11:35.190Z,5.65
2022-11-30T08:14:50.673Z,5.61
2022-11-30T08:18:00.428Z,5.60
2022-11-30T08:21:04.516Z,5.64
2022-11-30T08:24:06.274Z,5.68
2022-11-30T08:27:07.879Z,5.65
2022-11-30T08:30:09.785Z,5.63
2022-11-30T08:33:12.335Z,5.65
2022-11-30T08:36:16.616Z,5.64
2022-11-30T08:39:18.769Z,5.59
2022-11-30T08:42:20.343Z,5.61
2022-11-30T08:45:21.923Z,5.64
2022-11-30T08:48:23.641Z,5.60
2022-11-30T08:51:26.684Z,5.60
2022-11-30T08:54:28.137Z,5.59
2022-11-30T08:57:30.460Z,5.51
2022-11-30T09:00:32.006Z,5.47
2022-11-30T09:03:33.707Z,5.53
2022-11-30T09:06:36.520Z,5.45
2022-11-30T09:09:38.250Z,5.38
2022-11-30T09:12:40.224Z,5.39
2022-11-30T09:15:42.782Z,5.41
2022-11-30T09:18:44.597Z,5.38
2022-11-30T09:21:51.880Z,5.33
2022-11-30T09:24:54.056Z,5.30
2022-11-30T09:27:55.662Z,5.29
2022-11-30T09:31:01.158Z,5.26
2022-11-30T09:34:02.701Z,5.28
2022-11-30T09:37:05.621Z,5.29
2022-11-30T09:40:07.801Z,5.25
2022-11-30T09:43:18.973Z,5.24
2022-11-30T09:46:24.147Z,5.23
2022-11-30T09:49:28.778Z,5.24
2022-11-30T09:52:33.899Z,5.24
2022-11-30T09:55:39.359Z,5.17
2022-11-30T09:58:47.313Z,5.16
2022-11-30T10:01:52.097Z,5.10
2022-11-30T10:04:58.576Z,5.09
2022-11-30T10:08:08.489Z,5.05
2022-11-30T10:11:24.348Z,5.06
2022-11-30T10:14:49.898Z,5.06
2022-11-30T10:17:53.917Z,5.03
2022-11-30T10:20:59.457Z,5.02
2022-11-30T10:24:13.853Z,5.06
2022-11-30T10:27:17.481Z,5.07
2022-11-30T10:30:23.556Z,5.06
2022-11-30T10:33:27.465Z,5.01
2022-11-30T10:36:33.247Z,5.00
2022-11-30T10:39:39.022Z,5.02
2022-11-30T10:42:42.419Z,4.99
2022-11-30T10:45:46.253Z,5.08
2022-11-30T10:48:51.309Z,5.04
2022-11-30T10:51:54.952Z,5.10
2022-11-30T10:55:03.722Z,5.12
2022-11-30T10:58:11.096Z,5.06
2022-11-30T11:01:29.367Z,5.03
2022-11-30T11:04:30.929Z,5.03
2022-11-30T11:07:32.645Z,5.05
2022-11-30T11:10:37.149Z,5.04
2022-11-30T11:13:39.804Z,5.03
2022-11-30T11:16:49.735Z,5.03
2022-11-30T11:19:52.011Z,5.05
2022-11-30T11:22:53.563Z,5.08
2022-11-30T11:25:57.590Z,5.18
2022-11-30T11:29:02.486Z,5.12
2022-11-30T11:32:19.000Z,5.09
2022-11-30T11:35:34.179Z,5.09
2022-11-30T11:38:40.557Z,5.10
2022-11-30T11:41:43.549Z,5.06
2022-11-30T11:44:49.762Z,5.04
2022-11-30T11:47:57.844Z,5.06
2022-11-30T11:51:08.438Z,5.09
2022-11-30T11:54:15.953Z,5.09
2022-11-30T11:57:21.211Z,5.12
2022-11-30T12:00:26.092Z,5.15
2022-11-30T12:03:31.624Z,5.16
2022-11-30T12:06:36.961Z,5.18
2022-11-30T12:09:41.342Z,5.15
2022-11-30T12:12:48.424Z,5.08
2022-11-30T12:15:58.829Z,5.07
2022-11-30T12:19:04.303Z,5.06
2022-11-30T12:22:13.439Z,5.04
2022-11-30T12:25:23.989Z,5.04
2022-11-30T12:28:30.945Z,5.06
2022-11-30T12:31:36.170Z,5.11
2022-11-30T12:34:48.204Z,5.06
2022-11-30T12:37:58.479Z,5.06
2022-11-30T12:41:06.305Z,5.07
2022-11-30T12:44:18.622Z,5.05
2022-11-30T12:47:29.086Z,5.06
2022-11-30T12:50:39.875Z,4.99
2022-11-30T12:53:45.705Z,4.97
2022-11-30T12:56:49.528Z,4.90
2022-11-30T12:59:57.542Z,4.91
2022-11-30T13:03:13.875Z,4.87
2022-11-30T13:06:17.749Z,4.92
2022-11-30T13:09:25.257Z,4.87
2022-11-30T13:12:35.884Z,4.88
2022-11-30T13:15:39.937Z,4.89
2022-11-30T13:18:42.579Z,4.85
2022-11-30T13:21:49.166Z,4.87
2022-11-30T13:24:55.573Z,4.87
2022-11-30T13:28:02.544Z,4.78
2022-11-30T13:31:07.944Z,4.74
2022-11-30T13:34:22.864Z,4.69
2022-11-30T13:37:27.370Z,4.66
2022-11-30T13:40:31.199Z,4.70
2022-11-30T13:43:35.666Z,4.69
2022-11-30T13:46:48.118Z,4.68
2022-11-30T13:49:54.765Z,4.65
2022-11-30T13:53:30.031Z,4.66
2022-11-30T13:56:35.890Z,4.64
2022-11-30T13:59:44.518Z,4.57
2022-11-30T14:02:53.870Z,4.55
2022-11-30T14:05:55.795Z,4.53
2022-11-30T14:08:57.579Z,4.55
2022-11-30T14:11:59.102Z,4.55
2022-11-30T14:15:01.111Z,4.58
2022-11-30T14:18:12.661Z,4.57
2022-11-30T14:21:16.544Z,4.54
2022-11-30T14:24:20.035Z,4.52
2022-11-30T14:27:23.447Z,4.52
2022-11-30T14:30:25.055Z,4.52
2022-11-30T14:33:35.633Z,4.54
2022-11-30T14:36:40.281Z,4.54
2022-11-30T14:39:42.470Z,4.52
2022-11-30T14:42:46.847Z,4.51
2022-11-30T14:46:03.050Z,4.54
2022-11-30T14:49:12.717Z,4.51
2022-11-30T14:52:16.262Z,4.54
2022-11-30T14:55:24.636Z,4.51
2022-11-30T14:58:32.689Z,4.48
2022-11-30T15:01:34.181Z,4.46
2022-11-30T15:04:37.386Z,4.48
2022-11-30T15:07:41.461Z,4.48
2022-11-30T15:10:43.744Z,4.46
2022-11-30T15:13:47.449Z,4.46
2022-11-30T15:16:50.825Z,4.46
2022-11-30T15:19:53.730Z,4.48
2022-11-30T15:22:56.887Z,4.49
2022-11-30T15:26:00.478Z,4.49
2022-11-30T15:29:03.272Z,4.50
2022-11-30T15:32:07.076Z,4.56
2022-11-30T15:35:18.202Z,4.57
2022-11-30T15:38:21.505Z,4.53
2022-11-30T15:41:24.426Z,4.54
2022-11-30T15:44:37.448Z,4.53
2022-11-30T15:47:38.959Z,4.50
2022-11-30T15:50:41.989Z,4.48
2022-11-30T15:53:50.874Z,4.47
2022-11-30T15:56:55.313Z,4.43
2022-11-30T16:00:06.224Z,4.45
2022-11-30T16:03:08.372Z,4.48
2022-11-30T16:06:18.566Z,4.47
2022-11-30T16:09:20.912Z,4.45
2022-11-30T16:12:27.518Z,4.41
2022-11-30T16:15:33.038Z,4.40
2022-11-30T16:18:34.558Z,4.42
2022-11-30T16:21:37.456Z,4.40
2022-11-30T16:24:38.928Z,4.40
2022-11-30T16:27:41.351Z,4.38
2022-11-30T16:30:42.882Z,4.33
2022-11-30T16:33:45.029Z,4.32
2022-11-30T16:36:47.924Z,4.32
2022-11-30T16:39:49.659Z,4.31
2022-11-30T16:42:51.792Z,4.29
2022-11-30T16:45:53.630Z,4.29
2022-11-30T16:48:55.360Z,4.30
2022-11-30T16:51:58.431Z,4.32
2022-11-30T16:55:00.132Z,4.32
2022-11-30T16:58:01.991Z,4.25
2022-11-30T17:01:04.341Z,4.25
2022-11-30T17:04:11.331Z,4.26
2022-11-30T17:07:14.744Z,4.26
2022-11-30T17:10:16.554Z,4.26
2022-11-30T17:13:18.163Z,4.21
2022-11-30T17:16:19.823Z,4.20
2022-11-30T17:19:22.042Z,4.17
2022-11-30T17:22:25.051Z,4.20
2022-11-30T17:25:26.812Z,4.19
2022-11-30T17:28:28.335Z,4.20
2022-11-30T17:31:30.049Z,4.17
2022-11-30T17:34:31.785Z,4.22
2022-11-30T17:37:34.876Z,4.22
2022-11-30T17:40:39.096Z,4.21
2022-11-30T17:43:40.725Z,4.24
2022-11-30T17:46:46.798Z,4.29
2022-11-30T17:49:50.214Z,4.24
2022-11-30T17:52:53.134Z,4.23
2022-11-30T17:56:01.344Z,4.27
2022-11-30T17:59:02.926Z,4.28
2022-11-30T18:02:04.468Z,4.27
2022-11-30T18:05:06.479Z,4.25
2022-11-30T18:08:09.408Z,4.28
2022-11-30T18:11:11.857Z,4.33
2022-11-30T18:14:13.520Z,4.32
2022-11-30T18:17:15.010Z,4.28
2022-11-30T18:20:16.504Z,4.24
2022-11-30T18:23:19.592Z,4.30
2022-11-30T18:26:22.116Z,4.26
2022-11-30T18:29:23.698Z,4.31
2022-11-30T18:32:25.227Z,4.25
2022-11-30T18:35:26.802Z,4.21
2022-11-30T18:38:35.777Z,4.19
2022-11-30T18:41:39.259Z,4.15
2022-11-30T18:44:40.843Z,4.18
2022-11-30T18:47:42.355Z,4.19
2022-11-30T18:50:44.154Z,4.19
2022-11-30T18:53:47.261Z,4.21
2022-11-30T18:56:48.723Z,4.21
2022-11-30T18:59:53.846Z,4.25
2022-11-30T19:02:55.908Z,4.26
2022-11-30T19:05:57.457Z,4.25
2022-11-30T19:09:01.981Z,4.21
2022-11-30T19:12:03.733Z,4.21
2022-11-30T19:15:06.111Z,4.20
2022-11-30T19:18:09.033Z,4.19
2022-11-30T19:21:11.647Z,4.18
2022-11-30T19:24:14.684Z,4.12
2022-11-30T19:27:16.078Z,4.07
2022-11-30T19:30:17.829Z,4.09
2022-11-30T19:33:19.608Z,4.11
2022-11-30T19:36:22.043Z,4.11
2022-11-30T19:39:24.890Z,4.14
2022-11-30T19:42:26.454Z,4.19
2022-11-30T19:45:28.299Z,4.19
2022-11-30T19:48:30.022Z,4.11
2022-11-30T19:51:31.607Z,4.14
2022-11-30T19:54:34.613Z,4.15
2022-11-30T19:57:36.345Z,4.21
2022-11-30T20:00:37.807Z,4.18
2022-11-30T20:03:39.279Z,4.13
2022-11-30T20:06:40.806Z,4.07
2022-11-30T20:09:43.779Z,4.07
2022-11-30T20:12:45.294Z,4.15
2022-11-30T20:15:46.757Z,4.18
2022-11-30T20:18:51.746Z,4.21
2022-11-30T20:21:53.230Z,4.16
2022-11-30T20:24:56.291Z,4.08
2022-11-30T20:27:57.864Z,4.07
2022-11-30T20:31:02.012Z,4.05
2022-11-30T20:34:03.690Z,4.02
2022-11-30T20:37:05.211Z,4.00
2022-11-30T20:40:09.023Z,4.00
2022-11-30T20:43:10.522Z,3.96
2022-11-30T20:46:12.925Z,3.95
2022-11-30T20:49:16.075Z,4.00
2022-11-30T20:52:18.066Z,3.97
2022-11-30T20:55:20.942Z,3.99
2022-11-30T20:58:25.460Z,4.01
2022-11-30T21:01:26.996Z,4.03
2022-11-30T21:04:28.635Z,4.03
2022-11-30T21:07:30.090Z,4.05
2022-11-30T21:10:32.980Z,4.02
2022-11-30T21:13:34.876Z,3.99
2022-11-30T21:16:36.742Z,4.03
2022-11-30T21:19:38.388Z,4.02
2022-11-30T21:22:39.999Z,4.05
2022-11-30T21:25:42.931Z,4.06
2022-11-30T21:28:44.466Z,4.06
2022-11-30T21:31:46.262Z,4.09
2022-11-30T21:34:47.949Z,4.05
2022-11-30T21:37:49.629Z,4.02
2022-11-30T21:40:56.340Z,4.05
2022-11-30T21:43:57.971Z,4.05
2022-11-30T21:46:59.491Z,4.05
2022-11-30T21:50:03.559Z,3.97
2022-11-30T21:53:05.328Z,3.88
2022-11-30T21:56:09.286Z,3.89
2022-11-30T21:59:13.405Z,3.87
2022-11-30T22:02:14.969Z,3.85
2022-11-30T22:05:16.644Z,3.87
2022-11-30T22:08:18.227Z,3.83
2022-11-30T22:11:22.049Z,3.83
2022-11-30T22:14:23.873Z,3.82
2022-11-30T22:17:25.434Z,3.83
2022-11-30T22:20:26.997Z,3.78
2022-11-30T22:23:28.605Z,3.77
2022-11-30T22:26:32.612Z,3.78
2022-11-30T22:29:34.194Z,3.81
2022-11-30T22:32:39.522Z,3.76
2022-11-30T22:35:43.732Z,3.81
2022-11-30T22:38:45.823Z,3.82
2022-11-30T22:41:55.046Z,3.81
2022-11-30T22:44:57.452Z,3.79
2022-11-30T22:47:59.007Z,3.85
2022-11-30T22:51:04.089Z,3.84
2022-11-30T22:54:06.448Z,3.78
2022-11-30T22:57:09.395Z,3.75
2022-11-30T23:00:11.643Z,3.69
2022-11-30T23:03:13.208Z,3.71
2022-11-30T23:06:15.843Z,3.72
2022-11-30T23:09:19.728Z,3.76
2022-11-30T23:12:50.888Z,3.75
2022-11-30T23:15:44.306Z,3.72
2022-11-30T23:18:46.588Z,3.70
2022-11-30T23:21:50.039Z,3.75
2022-11-30T23:24:51.718Z,3.69
2022-11-30T23:27:54.635Z,3.65
2022-11-30T23:31:03.498Z,3.65
2022-11-30T23:34:06.441Z,3.59
2022-11-30T23:37:08.003Z,3.52
2022-11-30T23:40:09.849Z,3.51
2022-11-30T23:43:12.864Z,3.55
2022-11-30T23:46:14.365Z,3.51
2022-11-30T23:49:16.282Z,3.52
2022-11-30T23:52:17.831Z,3.54
2022-11-30T23:55:19.442Z,3.52
2022-11-30T23:58:23.071Z,3.53
